Latest Coastal Weather Observations for Varanus Island

IDW60701

Issued at 8:23 pm WST Sunday 9 August 2020 (issued every 10 minutes, with the page automatically refreshed every 10 minutes)

About coastal observations | Map of coastal stations | Coastal observations for WA | Marine services | Other Formats
Station Details ID: 200100 Name: VARANUS ISLAND Lat: -20.66 Lon: 115.58 Height: 24.0 m
Data from the previous 72 hours. | See also: Recent months at Varanus Island
Date/Time
WST
Wind Sea
Height
m
Swell Vis
km
Cloud Weather Temp
°C
Press
hPa
Rain since
9am
mm
Dir  Spd
kts
Gust
kts
Height
m
Period
s
Dir
09/08:00pm N 15 18 - - - - - - - 24.1 1011.3 0.0
09/07:30pm N 15 18 - - - - - - - 24.1 1011.1 0.0
09/07:00pm N 15 19 - - - - - - - 24.1 1010.8 0.0
09/06:30pm N 15 18 - - - - - - - 24.0 1010.6 0.0
09/06:00pm N 15 19 - - - - - - - 24.1 1010.4 0.0
09/05:30pm N 16 19 - - - - - - - 24.5 1010.6 0.0
09/05:00pm N 16 20 - - - - - - - 24.6 1010.7 0.0
09/04:30pm N 19 22 - - - - - - - 25.2 1010.5 0.0
09/04:00pm N 17 22 - - - - - - - 25.7 1010.4 0.0
09/03:00pm N 18 23 - - - - - - - 26.0 1010.3 0.0
09/02:30pm N 18 22 - - - - - - - 25.0 1010.2 0.0
09/02:00pm N 18 23 - - - - - - - 24.8 1010.4 0.0
09/01:30pm N 21 24 - - - - - - - 24.9 1010.8 0.0
09/01:00pm N 16 21 - - - - - - - 26.1 1011.2 0.0
09/12:30pm N 16 21 - - - - - - - 26.1 1011.8 0.0
09/12:00pm N 18 24 - - - - - - - 25.3 1012.1 0.0
09/11:30am N 21 24 - - - - - - - 24.8 1012.7 0.0
09/11:00am N 17 23 - - - - - - - 25.5 1012.8 0.0
09/10:30am NNE 19 25 - - - - - - - 24.7 1013.1 0.0
09/10:00am N 17 23 - - - - - - - 25.2 1013.2 0.0
09/09:30am N 19 24 - - - - - - - 24.7 1013.4 0.0
09/09:00am NNE 18 23 - - - - - - - 24.4 1013.3 0.0
09/08:30am NNE 16 23 - - - - - - - 24.3 1013.2 0.0
09/08:00am NNE 16 21 - - - - - - - 24.1 1012.9 0.0
09/07:30am NNE 16 24 - - - - - - - 23.3 1012.7 0.0
09/06:30am NNE 16 22 - - - - - - - 23.2 1012.4 0.0
09/06:00am NNE 16 21 - - - - - - - 23.0 1012.4 0.0
09/05:30am NE 16 21 - - - - - - - 23.0 1012.2 0.0
09/05:00am NNE 14 19 - - - - - - - 23.1 1012.1 0.0
09/04:30am NNE 14 18 - - - - - - - 22.9 1012.1 0.0
09/03:00am NE 15 19 - - - - - - - 22.6 1012.3 0.0
09/02:30am NNE 16 20 - - - - - - - 22.8 1012.6 0.0
09/02:00am NE 16 21 - - - - - - - 22.7 1012.7 0.0
09/01:30am NE 16 20 - - - - - - - 22.7 1012.9 0.0
09/12:00am - - - - - - - - - - - 1013.5 -
 
Date/Time
WST
Wind Sea
Height
m
Swell Vis
km
Cloud Weather Temp
°C
Press
hPa
Rain since
9am
mm
Dir  Spd
kts
Gust
kts
Height
m
Period
s
Dir
08/11:30pm NE 18 22 - - - - - - - 22.5 1013.7 0.0
08/11:00pm NE 18 25 - - - - - - - 22.3 1014.0 0.0
08/10:30pm NE 20 26 - - - - - - - 22.2 1013.9 0.0
08/10:00pm NE 20 27 - - - - - - - 22.1 1013.8 0.0
08/09:00pm NE 22 27 - - - - - - - 22.1 1013.6 0.0
08/07:30pm NE 23 28 - - - - - - - 22.0 1013.2 0.0
08/07:00pm ENE 24 28 - - - - - - - 22.0 1013.2 0.0
08/06:30pm ENE 24 30 - - - - - - - 21.8 1013.1 0.0
08/06:00pm ENE 22 28 - - - - - - - 21.8 1013.2 0.0
08/05:30pm ENE 24 28 - - - - - - - 22.1 1013.4 0.0
08/05:00pm ENE 21 26 - - - - - - - 22.6 1013.6 0.0
08/04:30pm ENE 21 26 - - - - - - - 22.5 1013.7 0.0
08/04:00pm ENE 21 27 - - - - - - - 23.5 1013.3 0.0
08/03:30pm ENE 24 28 - - - - - - - 23.4 1013.0 0.0
08/03:00pm ENE 24 30 - - - - - - - 23.1 1012.6 0.0
08/02:30pm ENE 24 29 - - - - - - - 23.5 1013.0 0.0
08/02:00pm ENE 25 29 - - - - - - - 23.6 1013.2 0.0
08/01:30pm ENE 25 28 - - - - - - - 23.3 1013.7 0.0
08/01:00pm E 24 28 - - - - - - - 23.0 1014.3 0.0
08/12:30pm ENE 21 26 - - - - - - - 23.5 1015.0 0.0
08/12:00pm E 20 23 - - - - - - - 23.3 1015.9 0.0
08/11:30am E 21 25 - - - - - - - 22.4 1016.0 0.0
08/11:00am ENE 21 27 - - - - - - - 22.7 1016.2 0.0
08/10:30am E 19 23 - - - - - - - 22.7 1016.6 0.0
08/10:00am ENE 19 22 - - - - - - - 22.7 1016.8 0.0
08/09:30am E 18 22 - - - - - - - 22.6 1017.0 0.0
08/09:00am E 20 23 - - - - - - - 22.3 1016.8 0.0
08/08:30am E 17 19 - - - - - - - 21.7 1016.6 0.0
08/08:00am E 17 19 - - - - - - - 21.2 1016.5 0.0
08/07:30am E 18 21 - - - - - - - 21.1 1016.2 0.0
08/07:00am E 16 19 - - - - - - - 20.8 1016.1 0.0
08/06:30am E 13 16 - - - - - - - 21.1 1016.0 0.0
08/06:00am - - - - - - - - - - 21.2 1015.7 -
08/05:30am E 11 13 - - - - - - - 21.2 1015.5 0.0
08/05:00am ENE 9 12 - - - - - - - 21.1 1015.3 0.0
08/04:30am NE 9 11 - - - - - - - 21.2 1015.2 0.0
08/03:30am NE 9 10 - - - - - - - 21.2 1015.2 -
08/03:00am NE 8 11 - - - - - - - 21.0 1015.2 -
08/01:30am NE 9 11 - - - - - - - 21.4 1015.6 0.0
08/01:00am NE 8 10 - - - - - - - 21.5 1015.8 0.0
08/12:30am NE 8 9 - - - - - - - 21.4 1016.0 0.0
08/12:00am NE 9 11 - - - - - - - 21.6 1016.1 0.0
 
Date/Time
WST
Wind Sea
Height
m
Swell Vis
km
Cloud Weather Temp
°C
Press
hPa
Rain since
9am
mm
Dir  Spd
kts
Gust
kts
Height
m
Period
s
Dir
07/11:30pm NE 8 12 - - - - - - - 21.6 1016.2 0.0
07/11:00pm NNE 9 13 - - - - - - - 21.6 1016.2 0.0
07/10:30pm NNE 8 11 - - - - - - - 21.5 1016.3 0.0
07/10:00pm N 11 15 - - - - - - - 21.6 1016.3 0.0
07/09:30pm NNE 12 16 - - - - - - - 21.7 1016.4 0.0
07/09:00pm NNE 11 15 - - - - - - - 21.5 1016.5 0.0
07/08:00pm NE 14 18 - - - - - - - 21.4 1016.3 0.0
07/07:30pm NE 14 19 - - - - - - - 21.3 1016.4 0.0
07/07:00pm NE 14 19 - - - - - - - 21.3 1016.2 0.0
07/06:30pm NE 15 19 - - - - - - - 21.4 1016.0 0.0
07/06:00pm NE 16 19 - - - - - - - 21.5 1015.8 0.0
07/05:30pm NE 14 18 - - - - - - - 21.8 1015.9 0.0
07/05:00pm NE 16 20 - - - - - - - 22.0 1016.0 0.0
07/04:30pm NE 16 20 - - - - - - - 22.2 1015.8 0.0
07/04:00pm NE 17 22 - - - - - - - 22.6 1015.9 0.0
07/03:30pm NE 18 22 - - - - - - - 22.6 1016.3 0.0
07/03:00pm ENE 18 23 - - - - - - - 23.1 1016.4 0.0
07/02:30pm ENE 20 24 - - - - - - - 22.5 1016.8 0.0
07/02:00pm ENE 21 25 - - - - - - - 22.5 1017.0 0.0
07/01:00pm ENE 23 27 - - - - - - - 22.5 1017.7 0.0
07/12:30pm E 22 29 - - - - - - - 22.7 1018.0 0.0
07/12:00pm E 23 27 - - - - - - - 22.4 1018.0 0.0
07/11:30am E 22 27 - - - - - - - 22.4 1018.6 0.0
07/11:00am E 23 28 - - - - - - - 22.5 1018.9 0.0
07/10:30am E 26 30 - - - - - - - 21.9 1019.1 0.0
07/10:00am E 24 28 - - - - - - - 21.9 1019.0 0.0
07/09:30am E 27 31 - - - - - - - 21.9 1018.6 0.0
07/09:00am E 28 32 - - - - - - - 21.6 1018.1 0.0
07/08:30am E 27 33 - - - - - - - 21.3 1017.4 0.0
07/08:00am E 24 29 - - - - - - - 21.1 1017.1 0.0
07/07:00am SE 15 18 - - - - - - - 20.2 1017.0 0.0
07/06:30am SE 15 18 - - - - - - - 19.9 1016.8 0.0
07/06:00am SE 14 18 - - - - - - - 19.9 1016.2 0.0
07/04:30am SE 12 16 - - - - - - - 19.9 1015.5 -
07/04:00am SSE 13 15 - - - - - - - 20.0 1015.6 0.0
07/03:30am SSE 12 15 - - - - - - - 20.2 1015.3 0.0
07/03:00am SSE 11 13 - - - - - - - 20.1 1015.4 0.0
07/02:30am SSE 10 13 - - - - - - - 20.3 1015.5 -
07/02:00am SSE 9 11 - - - - - - - 20.3 1015.8 0.0
07/01:30am SSE 8 10 - - - - - - - 20.3 1016.1 0.0
07/12:30am SE 6 7 - - - - - - - 20.7 1016.3 0.0
07/12:00am - - - - - - - - - - - 1016.4 -
 
Date/Time
WST
Wind Sea
Height
m
Swell Vis
km
Cloud Weather Temp
°C
Press
hPa
Rain since
9am
mm
Dir  Spd
kts
Gust
kts
Height
m
Period
s
Dir
06/11:30pm NE 4 5 - - - - - - - 20.5 1016.7 -
06/11:00pm NE 5 7 - - - - - - - 21.2 1016.8 0.0
06/10:30pm NE 7 8 - - - - - - - 21.2 1016.7 0.0
06/10:00pm NNE 5 8 - - - - - - - 20.9 1016.4 0.0
06/09:00pm NE 6 7 - - - - - - - 20.8 1016.7 0.0

Other formats

Comma delimited format used in spreadsheet applications
http://www.bom.gov.au/fwo/IDW60701/IDW60701.95303.axf

JavaScript Object Notation format (JSON) in row-major order
http://www.bom.gov.au/fwo/IDW60701/IDW60701.95303.json

Data quality

Most of these data are generated automatically and are frequently updated. Quality checks on data are not normally performed. It is possible for incorrect values to appear. Refer to information at About Latest Weather Observations and please check the disclaimer before using these data.